Time;durP1;ratioP1;P1;durP2;ratioP2;P2;SDS_P1;SDS_P2;PMS_P1;PMS_P2;Temp;Humidity;BMP_temperature;BMP_pressure;BME280_temperature;BME280_humidity;BME280_pressure;Samples;Min_cycle;Max_cycle;Signal;HPM_P1;HPM_P2
2023/08/13 00:01:17;;;;;;;19.85;17.13;;;20.30;99.90;;;;;;5097735;28;20400;-88
2023/08/13 00:03:43;;;;;;;19.20;16.75;;;20.30;99.90;;;;;;5099473;28;20366;-86
2023/08/13 00:06:09;;;;;;;20.75;18.35;;;20.30;99.90;;;;;;5100481;28;20503;-90
2023/08/13 00:08:35;;;;;;;22.55;17.90;;;20.20;99.90;;;;;;5103866;28;20051;-89
2023/08/13 00:11:09;;;;;;;21.30;18.00;;;20.20;99.90;;;;;;5100530;28;20023;-90
2023/08/13 00:13:36;;;;;;;18.90;16.98;;;20.30;99.90;;;;;;5122941;28;20028;-86
2023/08/13 00:16:02;;;;;;;20.88;18.75;;;20.30;99.90;;;;;;5115308;28;20031;-85
2023/08/13 00:18:28;;;;;;;22.35;18.77;;;20.30;99.90;;;;;;5102179;28;20092;-86
2023/08/13 00:20:54;;;;;;;24.27;19.20;;;20.20;99.90;;;;;;5092970;28;20119;-86
2023/08/13 00:23:20;;;;;;;21.95;18.23;;;20.20;99.90;;;;;;5119604;28;20023;-84
2023/08/13 00:25:45;;;;;;;21.98;17.45;;;20.20;99.90;;;;;;5117046;28;20019;-85
2023/08/13 00:28:11;;;;;;;19.10;17.08;;;20.20;99.90;;;;;;5110506;28;20099;-84
2023/08/13 00:30:37;;;;;;;20.23;18.00;;;20.10;99.90;;;;;;5096233;28;20069;-84
2023/08/13 00:33:03;;;;;;;18.75;16.77;;;20.20;99.90;;;;;;5114638;28;20027;-85
2023/08/13 00:35:29;;;;;;;19.02;17.13;;;20.20;99.90;;;;;;5108169;27;20026;-85
2023/08/13 00:37:55;;;;;;;18.63;16.63;;;20.20;99.90;;;;;;5112959;28;20031;-85
2023/08/13 00:40:21;;;;;;;24.60;18.42;;;20.20;99.90;;;;;;5097998;28;20046;-84
2023/08/13 00:42:46;;;;;;;20.10;16.65;;;20.20;99.90;;;;;;5095952;28;20370;-84
2023/08/13 00:45:12;;;;;;;19.92;17.80;;;20.10;99.90;;;;;;5114892;28;20027;-85
2023/08/13 00:47:38;;;;;;;21.35;17.40;;;20.10;99.90;;;;;;5099567;27;20020;-84
2023/08/13 00:50:05;;;;;;;19.20;17.20;;;20.10;99.90;;;;;;5125953;27;20027;-85
2023/08/13 00:52:32;;;;;;;22.52;16.50;;;20.10;99.90;;;;;;5120913;28;20016;-84
2023/08/13 00:54:58;;;;;;;21.02;17.75;;;20.10;99.90;;;;;;5120014;28;20020;-84
2023/08/13 00:57:24;;;;;;;19.40;16.98;;;20.20;99.90;;;;;;5117177;28;20027;-86
2023/08/13 00:59:51;;;;;;;20.05;16.08;;;20.20;99.90;;;;;;5100829;28;20055;-86
2023/08/13 01:02:17;;;;;;;18.35;16.33;;;20.20;99.90;;;;;;5109478;28;20020;-85
2023/08/13 01:04:43;;;;;;;23.38;17.30;;;20.20;99.90;;;;;;5131092;28;20035;-85
2023/08/13 01:07:24;;;;;;;19.55;17.25;;;20.20;99.90;;;;;;5122639;28;20100;-84
2023/08/13 01:10:33;;;;;;;19.27;17.35;;;20.10;99.90;;;;;;5091046;28;20043;-85
2023/08/13 01:13:22;;;;;;;20.40;17.25;;;20.10;99.90;;;;;;5075793;28;20031;-88
2023/08/13 01:15:50;;;;;;;23.27;18.17;;;20.00;99.90;;;;;;5104400;28;20019;-86
2023/08/13 01:18:17;;;;;;;19.63;17.50;;;20.00;99.90;;;;;;5094315;28;20023;-85
2023/08/13 01:20:44;;;;;;;21.75;18.23;;;20.00;99.90;;;;;;5112678;28;20023;-84
2023/08/13 01:23:10;;;;;;;21.38;17.27;;;20.00;99.90;;;;;;5087513;28;20497;-85
2023/08/13 01:25:36;;;;;;;19.77;17.38;;;20.00;99.90;;;;;;5117318;28;20107;-86
2023/08/13 01:28:08;;;;;;;22.00;17.93;;;19.90;99.90;;;;;;5095212;28;20029;-85
2023/08/13 01:30:44;;;;;;;19.30;17.25;;;19.90;99.90;;;;;;5112519;28;20737;-85
2023/08/13 01:33:15;;;;;;;20.92;17.75;;;19.90;99.90;;;;;;5115701;28;20027;-86
2023/08/13 01:35:43;;;;;;;21.40;17.45;;;19.90;99.90;;;;;;5112063;28;20023;-85
2023/08/13 01:38:10;;;;;;;20.45;17.90;;;19.90;99.90;;;;;;5086868;28;20115;-86
2023/08/13 01:40:36;;;;;;;26.10;19.45;;;19.80;99.90;;;;;;5112239;28;20032;-86
2023/08/13 01:43:02;;;;;;;23.77;18.20;;;19.80;99.90;;;;;;5118534;28;20085;-85
2023/08/13 01:45:29;;;;;;;21.38;16.13;;;19.80;99.90;;;;;;5126506;28;20019;-84
2023/08/13 01:47:55;;;;;;;18.45;16.58;;;19.80;99.90;;;;;;5107361;28;20025;-87
2023/08/13 01:50:22;;;;;;;21.85;17.95;;;19.80;99.90;;;;;;5115851;28;20039;-86
2023/08/13 01:52:48;;;;;;;20.85;17.95;;;19.80;99.90;;;;;;5116147;28;20016;-85
2023/08/13 01:55:14;;;;;;;21.50;18.27;;;19.80;99.90;;;;;;5118984;28;20413;-86
2023/08/13 01:57:40;;;;;;;21.77;17.60;;;19.70;99.90;;;;;;5119783;28;20012;-86
2023/08/13 02:00:07;;;;;;;22.45;18.73;;;19.70;99.90;;;;;;5114078;28;20051;-85
2023/08/13 02:02:36;;;;;;;20.08;17.52;;;19.80;99.90;;;;;;5103728;28;20487;-84
2023/08/13 02:05:02;;;;;;;20.92;16.42;;;19.90;99.90;;;;;;5094711;28;20030;-85
2023/08/13 02:07:28;;;;;;;21.50;18.35;;;19.90;99.90;;;;;;5096388;28;20481;-86
2023/08/13 02:09:54;;;;;;;21.40;18.10;;;19.90;99.90;;;;;;5121570;28;20046;-84
2023/08/13 02:12:20;;;;;;;20.58;18.27;;;19.90;99.90;;;;;;5093401;28;20020;-84
2023/08/13 02:14:45;;;;;;;23.33;17.83;;;19.90;99.90;;;;;;5096289;28;20031;-85
2023/08/13 02:17:14;;;;;;;19.33;17.17;;;19.90;99.90;;;;;;5108901;28;20426;-85
2023/08/13 02:19:40;;;;;;;23.15;18.85;;;19.90;99.90;;;;;;5110695;28;20087;-85
2023/08/13 02:22:09;;;;;;;21.98;18.02;;;19.90;99.90;;;;;;5117464;28;20024;-86
2023/08/13 02:24:35;;;;;;;21.63;18.17;;;19.80;99.90;;;;;;5108585;28;20024;-84
2023/08/13 02:27:01;;;;;;;21.98;18.90;;;19.90;99.90;;;;;;5108877;28;20023;-85
2023/08/13 02:29:26;;;;;;;25.40;19.52;;;19.90;99.90;;;;;;5091965;28;20051;-85
2023/08/13 02:31:52;;;;;;;23.83;18.20;;;19.90;99.90;;;;;;5115869;28;20502;-87
2023/08/13 02:34:18;;;;;;;21.75;18.35;;;20.00;99.90;;;;;;5101777;28;20477;-85
2023/08/13 02:36:44;;;;;;;30.00;19.10;;;20.10;99.90;;;;;;5122013;28;20349;-86
2023/08/13 02:39:10;;;;;;;20.38;18.27;;;20.00;99.90;;;;;;5105888;28;20029;-85
2023/08/13 02:41:35;;;;;;;23.48;19.52;;;20.00;99.90;;;;;;5118758;27;20020;-84
2023/08/13 02:44:01;;;;;;;26.42;19.40;;;20.00;99.90;;;;;;5084897;28;20016;-84
2023/08/13 02:46:27;;;;;;;25.58;18.88;;;20.00;99.90;;;;;;5115814;28;20111;-85
2023/08/13 02:48:54;;;;;;;22.80;19.30;;;20.10;99.90;;;;;;5112618;28;20057;-85
2023/08/13 02:51:20;;;;;;;30.70;20.20;;;20.20;99.90;;;;;;5097085;28;20366;-84
2023/08/13 02:53:46;;;;;;;22.40;18.85;;;20.30;99.90;;;;;;5115610;28;20042;-85
2023/08/13 02:56:12;;;;;;;29.50;18.98;;;20.30;99.90;;;;;;5114258;28;20023;-84
2023/08/13 02:58:38;;;;;;;21.92;17.67;;;20.40;99.90;;;;;;5118613;28;20026;-86
2023/08/13 03:01:04;;;;;;;23.42;18.90;;;20.50;99.90;;;;;;5104166;28;20059;-85
2023/08/13 03:03:30;;;;;;;30.02;19.08;;;20.60;99.90;;;;;;5116053;28;20388;-86
2023/08/13 03:05:57;;;;;;;28.67;18.67;;;20.70;99.90;;;;;;5117503;28;20031;-85
2023/08/13 03:08:23;;;;;;;29.27;19.70;;;20.80;99.90;;;;;;5111112;28;20047;-85
2023/08/13 03:10:49;;;;;;;22.42;19.13;;;20.90;99.90;;;;;;5114354;28;20012;-86
2023/08/13 03:13:15;;;;;;;23.95;19.88;;;21.00;99.90;;;;;;5125582;28;20028;-86
2023/08/13 03:15:41;;;;;;;23.65;18.08;;;21.00;99.90;;;;;;5120340;28;20034;-89
2023/08/13 03:18:07;;;;;;;23.70;18.13;;;21.00;99.90;;;;;;5117603;28;20091;-87
2023/08/13 03:20:33;;;;;;;20.92;17.63;;;21.10;99.80;;;;;;5100833;28;20038;-87
2023/08/13 03:23:00;;;;;;;24.30;18.52;;;21.00;99.80;;;;;;5102282;28;20031;-86
2023/08/13 03:25:26;;;;;;;21.35;18.60;;;21.10;99.80;;;;;;5093053;28;20023;-86
2023/08/13 03:27:51;;;;;;;29.83;18.48;;;21.10;99.70;;;;;;5112219;28;20346;-86
2023/08/13 03:30:17;;;;;;;26.67;18.83;;;21.10;99.70;;;;;;5097101;28;20035;-86
2023/08/13 03:32:43;;;;;;;23.27;19.10;;;21.10;99.70;;;;;;5105896;28;20016;-85
2023/08/13 03:35:09;;;;;;;24.55;18.60;;;21.10;99.60;;;;;;5100790;28;20035;-87
2023/08/13 03:37:35;;;;;;;23.05;18.35;;;21.20;99.70;;;;;;5098557;28;20015;-87
2023/08/13 03:40:01;;;;;;;23.92;19.08;;;21.20;99.60;;;;;;5104046;28;20046;-88
2023/08/13 03:42:27;;;;;;;21.88;19.35;;;21.20;99.50;;;;;;5121117;28;20019;-86
2023/08/13 03:44:53;;;;;;;25.73;20.23;;;21.10;99.60;;;;;;5106181;28;20011;-85
2023/08/13 03:47:18;;;;;;;23.13;19.65;;;21.20;99.70;;;;;;5123324;28;20016;-87
2023/08/13 03:49:45;;;;;;;24.70;21.67;;;21.20;99.70;;;;;;5125993;28;20020;-85
2023/08/13 03:52:10;;;;;;;25.45;21.05;;;21.30;99.60;;;;;;5133928;28;20079;-86
2023/08/13 03:54:36;;;;;;;27.15;20.40;;;21.40;99.30;;;;;;5126666;28;20020;-86
2023/08/13 03:57:02;;;;;;;30.50;20.55;;;21.40;99.40;;;;;;5099663;28;20503;-85
2023/08/13 03:59:28;;;;;;;27.25;20.75;;;21.40;99.20;;;;;;5092409;28;20114;-84
2023/08/13 04:01:54;;;;;;;33.00;20.95;;;21.50;99.10;;;;;;5117027;28;20024;-84
2023/08/13 04:04:20;;;;;;;25.38;19.88;;;21.50;99.00;;;;;;5118604;28;20099;-85
2023/08/13 04:06:46;;;;;;;25.17;20.13;;;21.60;98.80;;;;;;5094064;28;20406;-86
2023/08/13 04:09:12;;;;;;;28.45;20.08;;;21.80;98.70;;;;;;5082282;28;20052;-85
2023/08/13 04:11:38;;;;;;;24.70;21.20;;;22.00;98.60;;;;;;5095284;28;20030;-87
2023/08/13 04:14:04;;;;;;;26.55;22.08;;;22.20;98.20;;;;;;5098709;28;20024;-85
2023/08/13 04:16:29;;;;;;;23.52;20.52;;;22.30;97.60;;;;;;5103798;28;20031;-84
2023/08/13 04:18:55;;;;;;;24.00;21.55;;;22.30;97.50;;;;;;5103093;28;20028;-85
2023/08/13 04:21:23;;;;;;;27.58;21.42;;;22.50;97.20;;;;;;5089416;28;20032;-86
2023/08/13 04:23:49;;;;;;;25.33;22.65;;;22.70;96.80;;;;;;5093300;28;20088;-85
2023/08/13 04:26:14;;;;;;;25.55;22.92;;;22.80;96.10;;;;;;5095836;28;20027;-85
2023/08/13 04:28:40;;;;;;;30.35;23.00;;;22.60;96.30;;;;;;5094273;28;20372;-85
2023/08/13 04:31:06;;;;;;;29.85;23.00;;;22.60;96.60;;;;;;5082194;28;20025;-84
2023/08/13 04:33:32;;;;;;;24.80;22.02;;;22.60;96.30;;;;;;5099379;28;20047;-85
2023/08/13 04:35:58;;;;;;;28.63;21.90;;;22.40;96.40;;;;;;5096774;28;20020;-85
2023/08/13 04:38:23;;;;;;;26.30;23.77;;;22.30;96.90;;;;;;5109380;28;20033;-85
2023/08/13 04:40:50;;;;;;;25.00;21.33;;;22.50;96.90;;;;;;5105880;28;20024;-85
2023/08/13 04:43:16;;;;;;;22.60;19.83;;;22.80;96.30;;;;;;5098203;28;20025;-87
2023/08/13 04:45:46;;;;;;;20.73;18.77;;;23.10;95.80;;;;;;5079326;28;20366;-86
2023/08/13 04:48:38;;;;;;;23.48;19.23;;;23.20;95.10;;;;;;5098121;28;20016;-85
2023/08/13 04:51:04;;;;;;;21.35;18.98;;;23.20;95.20;;;;;;5105116;28;20084;-86
2023/08/13 04:53:33;;;;;;;31.33;19.02;;;23.30;95.10;;;;;;5104388;28;20028;-86
2023/08/13 04:55:59;;;;;;;31.80;19.98;;;23.60;94.80;;;;;;5107321;28;20024;-88
2023/08/13 04:58:25;;;;;;;24.92;18.88;;;24.10;94.00;;;;;;5095744;28;20020;-86
2023/08/13 05:00:51;;;;;;;22.23;17.55;;;24.60;93.10;;;;;;5092939;28;20037;-87
2023/08/13 05:03:16;;;;;;;22.73;18.75;;;24.90;92.00;;;;;;5094502;28;20028;-87
2023/08/13 05:05:42;;;;;;;25.27;18.30;;;25.10;91.60;;;;;;5090667;28;20012;-86
2023/08/13 05:08:08;;;;;;;25.60;19.48;;;25.60;91.20;;;;;;5098878;28;20024;-88
2023/08/13 05:10:34;;;;;;;20.45;16.83;;;26.30;89.80;;;;;;5092046;28;20108;-85
2023/08/13 05:13:01;;;;;;;20.45;16.83;;;27.00;87.00;;;;;;5087698;28;20134;-86
2023/08/13 05:15:27;;;;;;;18.98;15.30;;;27.50;85.20;;;;;;5089957;28;20028;-87
2023/08/13 05:17:53;;;;;;;20.17;15.43;;;28.20;83.00;;;;;;5110171;28;20073;-86
2023/08/13 05:20:19;;;;;;;24.38;15.30;;;28.90;79.60;;;;;;5092318;28;20284;-86
2023/08/13 05:22:46;;;;;;;17.70;14.48;;;29.40;77.30;;;;;;5116832;28;20016;-86
2023/08/13 05:25:12;;;;;;;15.85;14.25;;;30.00;75.40;;;;;;5103108;28;20487;-86
2023/08/13 05:27:37;;;;;;;15.85;13.13;;;30.60;74.00;;;;;;5097718;28;20108;-85
2023/08/13 05:30:04;;;;;;;18.85;13.45;;;31.30;71.10;;;;;;5081333;28;20032;-85
2023/08/13 05:32:30;;;;;;;17.73;12.40;;;31.50;68.60;;;;;;5088985;28;20013;-86
2023/08/13 05:34:56;;;;;;;14.48;12.85;;;30.90;68.60;;;;;;5097268;28;20024;-85
2023/08/13 05:37:21;;;;;;;16.95;12.50;;;30.10;69.90;;;;;;5096612;28;20016;-85
2023/08/13 05:39:47;;;;;;;19.83;12.65;;;29.20;72.00;;;;;;5107019;28;20040;-85
2023/08/13 05:42:13;;;;;;;15.00;12.38;;;28.50;74.10;;;;;;5121003;28;20012;-83
2023/08/13 05:44:39;;;;;;;17.40;12.13;;;27.80;74.70;;;;;;5114752;28;20480;-86
2023/08/13 05:47:05;;;;;;;13.63;12.10;;;27.00;76.70;;;;;;5101968;28;20115;-84
2023/08/13 05:49:31;;;;;;;14.90;12.05;;;26.00;79.10;;;;;;5114295;28;20027;-85
2023/08/13 05:51:57;;;;;;;16.33;13.10;;;25.20;81.90;;;;;;5123277;28;20534;-85
2023/08/13 05:54:23;;;;;;;17.05;12.65;;;24.50;85.10;;;;;;5116740;28;20034;-85
2023/08/13 05:56:49;;;;;;;13.32;9.68;;;24.10;86.90;;;;;;5114448;28;20039;-85
2023/08/13 05:59:15;;;;;;;11.18;9.93;;;23.70;87.20;;;;;;5125917;28;20055;-85
2023/08/13 06:01:41;;;;;;;19.83;11.05;;;23.20;88.70;;;;;;5121068;28;20036;-86
2023/08/13 06:04:06;;;;;;;11.95;9.05;;;23.00;90.20;;;;;;5103477;28;20032;-86
2023/08/13 06:06:33;;;;;;;13.30;9.07;;;22.90;90.20;;;;;;5114489;28;20027;-87
2023/08/13 06:08:59;;;;;;;16.13;8.40;;;22.70;90.30;;;;;;5102303;28;20149;-87
2023/08/13 06:11:24;;;;;;;12.38;8.70;;;22.80;90.40;;;;;;5103695;28;20111;-87
2023/08/13 06:13:51;;;;;;;18.20;8.70;;;23.30;90.20;;;;;;5098331;28;20062;-88
2023/08/13 06:16:17;;;;;;;10.13;8.32;;;23.70;87.70;;;;;;5116438;28;20027;-86
2023/08/13 06:18:42;;;;;;;9.00;7.30;;;23.80;86.80;;;;;;5096406;28;20036;-86
2023/08/13 06:21:08;;;;;;;11.55;8.52;;;24.20;86.50;;;;;;5095642;28;20028;-86
2023/08/13 06:23:34;;;;;;;16.55;7.93;;;25.10;84.50;;;;;;5075789;28;20028;-87
2023/08/13 06:26:00;;;;;;;11.23;8.68;;;26.40;81.20;;;;;;5092242;28;20027;-87
2023/08/13 06:28:26;;;;;;;14.35;7.55;;;27.40;77.60;;;;;;5089692;28;20501;-86
2023/08/13 06:30:52;;;;;;;10.30;7.03;;;27.90;74.80;;;;;;5107782;28;20064;-86
2023/08/13 06:33:19;;;;;;;13.73;7.00;;;27.90;73.70;;;;;;5098618;28;20063;-86
2023/08/13 06:35:46;;;;;;;11.32;7.80;;;27.70;73.50;;;;;;5106287;28;20016;-86
2023/08/13 06:38:13;;;;;;;11.55;8.73;;;27.20;74.50;;;;;;5118176;28;20038;-86
2023/08/13 06:40:39;;;;;;;;;;;26.70;75.60;;;;;;5104419;28;20028;-87
2023/08/13 06:43:05;;;;;;;15.77;8.60;;;26.20;77.60;;;;;;5095992;28;19904;-87
2023/08/13 06:45:31;;;;;;;14.50;7.60;;;25.90;78.50;;;;;;5101413;28;20441;-87
2023/08/13 06:47:57;;;;;;;9.02;6.85;;;25.60;77.90;;;;;;5132645;28;20000;-89
2023/08/13 06:50:23;;;;;;;12.98;7.60;;;25.40;78.10;;;;;;5121501;28;20012;-87
2023/08/13 06:52:49;;;;;;;14.93;7.17;;;25.30;77.70;;;;;;5127376;27;20019;-89
2023/08/13 06:55:15;;;;;;;12.70;7.25;;;25.60;77.20;;;;;;5118336;28;20028;-89
2023/08/13 06:57:41;;;;;;;17.20;7.38;;;25.60;76.90;;;;;;5102336;28;20412;-88
2023/08/13 07:00:08;;;;;;;13.88;6.70;;;25.40;76.90;;;;;;5097023;28;20073;-88
2023/08/13 07:02:34;;;;;;;26.03;8.23;;;25.00;77.70;;;;;;5090772;28;20016;-89
2023/08/13 07:05:00;;;;;;;14.55;7.40;;;24.60;79.20;;;;;;5095102;28;20283;-90
2023/08/13 07:07:26;;;;;;;6.88;5.72;;;24.20;79.90;;;;;;5092705;28;20020;-89
2023/08/13 07:09:51;;;;;;;7.90;5.28;;;23.60;80.80;;;;;;5103623;28;20043;-85
2023/08/13 07:12:18;;;;;;;7.57;5.53;;;23.00;82.50;;;;;;5113893;28;20603;-87
2023/08/13 07:14:44;;;;;;;9.67;4.97;;;22.50;84.40;;;;;;5117848;28;20016;-85
2023/08/13 07:17:10;;;;;;;6.13;4.60;;;22.30;84.80;;;;;;5120369;28;20286;-85
2023/08/13 07:19:36;;;;;;;7.97;5.28;;;22.30;84.60;;;;;;5120888;28;20495;-87
2023/08/13 07:22:02;;;;;;;7.50;4.40;;;22.50;85.30;;;;;;5118199;28;20020;-87
2023/08/13 07:24:28;;;;;;;13.18;5.05;;;22.80;82.60;;;;;;5123189;28;20279;-86
2023/08/13 07:26:54;;;;;;;7.68;4.18;;;23.20;81.90;;;;;;5119272;28;20016;-87
2023/08/13 07:29:22;;;;;;;6.53;4.20;;;23.20;80.00;;;;;;5101130;28;20028;-87
2023/08/13 07:31:49;;;;;;;10.25;4.80;;;23.10;80.30;;;;;;5110061;28;20024;-86
2023/08/13 07:34:15;;;;;;;10.02;4.70;;;23.10;80.40;;;;;;5113705;28;20077;-85
2023/08/13 07:36:41;;;;;;;11.93;4.82;;;23.10;80.20;;;;;;5114624;28;20027;-88
2023/08/13 07:39:09;;;;;;;7.45;3.80;;;23.00;80.20;;;;;;5105717;28;20110;-86
2023/08/13 07:41:35;;;;;;;9.18;4.53;;;22.80;80.20;;;;;;5116488;28;20072;-85
2023/08/13 07:44:01;;;;;;;8.45;4.63;;;22.60;81.60;;;;;;5103505;28;20031;-85
2023/08/13 07:46:27;;;;;;;7.03;4.20;;;22.50;82.00;;;;;;5098348;28;20028;-86
2023/08/13 07:48:54;;;;;;;8.05;4.00;;;22.50;82.00;;;;;;5120045;28;20377;-86
2023/08/13 07:51:22;;;;;;;11.90;4.88;;;22.20;82.40;;;;;;5116303;28;20020;-86
2023/08/13 07:53:48;;;;;;;10.65;5.70;;;22.00;83.40;;;;;;5105879;28;20039;-87
2023/08/13 07:56:14;;;;;;;4.65;3.65;;;21.90;84.80;;;;;;5105362;28;20062;-87
2023/08/13 07:58:40;;;;;;;14.98;5.43;;;21.90;84.60;;;;;;5123520;28;20129;-84
2023/08/13 08:01:06;;;;;;;9.00;4.45;;;21.70;85.40;;;;;;5131249;28;20039;-86
2023/08/13 08:03:32;;;;;;;9.35;5.00;;;21.70;86.10;;;;;;5102998;28;20024;-82
2023/08/13 08:05:58;;;;;;;5.57;3.40;;;21.60;86.80;;;;;;5104831;28;20047;-82
2023/08/13 08:08:24;;;;;;;9.05;4.25;;;21.40;86.80;;;;;;5105399;28;20088;-81
2023/08/13 08:10:50;;;;;;;6.13;3.90;;;21.20;88.20;;;;;;5084922;28;20038;-81
2023/08/13 08:13:16;;;;;;;12.15;5.18;;;21.40;88.20;;;;;;5098544;28;20024;-80
2023/08/13 08:15:42;;;;;;;6.43;3.88;;;21.50;88.50;;;;;;5088228;28;20454;-80
2023/08/13 08:18:07;;;;;;;9.48;4.75;;;21.80;87.20;;;;;;5112678;28;20087;-82
2023/08/13 08:20:33;;;;;;;12.48;4.88;;;21.70;87.30;;;;;;5078811;28;20071;-80
2023/08/13 08:22:59;;;;;;;6.60;5.57;;;21.60;87.60;;;;;;5090580;28;20012;-84
2023/08/13 08:25:25;;;;;;;16.30;4.80;;;21.70;87.90;;;;;;5102234;28;20024;-82
2023/08/13 08:27:51;;;;;;;8.98;4.88;;;21.50;88.10;;;;;;5105208;28;20468;-83
2023/08/13 08:30:17;;;;;;;9.18;3.75;;;21.40;88.70;;;;;;5088218;28;20024;-82
2023/08/13 08:32:43;;;;;;;8.70;5.18;;;21.30;89.20;;;;;;5086525;28;20024;-82
2023/08/13 08:35:09;;;;;;;10.75;5.25;;;21.20;89.80;;;;;;5093796;28;20475;-83
2023/08/13 08:37:35;;;;;;;12.32;5.47;;;21.00;90.30;;;;;;5095930;28;20027;-82
2023/08/13 08:40:03;;;;;;;13.60;5.18;;;20.90;90.60;;;;;;5101821;28;20053;-85
2023/08/13 08:42:30;;;;;;;6.85;4.82;;;21.10;90.60;;;;;;5102673;28;20031;-86
2023/08/13 08:44:59;;;;;;;7.80;5.00;;;20.90;90.70;;;;;;5125927;28;20035;-86
2023/08/13 08:47:26;;;;;;;10.15;5.55;;;20.80;91.10;;;;;;5101420;28;20070;-85
2023/08/13 08:49:54;;;;;;;12.77;5.75;;;20.80;91.30;;;;;;5097810;28;20353;-86
2023/08/13 08:52:20;;;;;;;10.27;5.95;;;21.00;91.40;;;;;;5124389;27;20100;-88
2023/08/13 08:54:48;;;;;;;10.10;6.28;;;21.20;91.00;;;;;;5119842;27;20469;-81
2023/08/13 08:57:14;;;;;;;14.75;6.40;;;21.20;90.80;;;;;;5114498;28;20027;-81
2023/08/13 08:59:40;;;;;;;15.52;6.53;;;21.20;90.80;;;;;;5101517;28;20113;-82
2023/08/13 09:02:08;;;;;;;6.85;4.20;;;21.40;91.00;;;;;;5114545;28;20023;-83
2023/08/13 09:04:34;;;;;;;6.28;4.43;;;21.60;90.10;;;;;;5098225;28;20552;-83
2023/08/13 09:07:02;;;;;;;5.05;3.58;;;21.70;89.40;;;;;;5123304;28;20083;-81
2023/08/13 09:09:29;;;;;;;6.15;2.97;;;21.70;88.50;;;;;;5090969;28;20408;-83
2023/08/13 09:11:56;;;;;;;4.20;2.78;;;21.60;88.00;;;;;;5093404;28;20026;-83
2023/08/13 09:14:23;;;;;;;7.95;3.90;;;21.50;88.50;;;;;;5109366;28;20020;-82
2023/08/13 09:16:51;;;;;;;9.85;4.13;;;21.50;89.30;;;;;;5096499;28;20495;-81
2023/08/13 09:19:18;;;;;;;5.35;3.30;;;21.50;89.30;;;;;;5084622;28;20067;-83
2023/08/13 09:21:48;;;;;;;;;;;21.20;89.60;;;;;;5090088;28;20016;-81
2023/08/13 09:24:14;;;;;;;5.10;3.55;;;21.00;90.10;;;;;;5100798;28;19950;-83
2023/08/13 09:26:40;;;;;;;8.15;3.50;;;20.80;90.60;;;;;;5118615;28;20488;-84
2023/08/13 09:29:07;;;;;;;4.00;3.65;;;20.80;90.80;;;;;;5117893;28;20440;-81
2023/08/13 09:31:34;;;;;;;4.50;3.10;;;20.80;90.80;;;;;;5116659;28;20489;-80
2023/08/13 09:34:00;;;;;;;5.97;3.63;;;21.00;90.70;;;;;;5096910;28;20706;-81
2023/08/13 09:36:27;;;;;;;6.60;3.33;;;21.10;90.70;;;;;;5114664;28;20034;-81
2023/08/13 09:38:53;;;;;;;;;;;21.30;90.20;;;;;;5106381;28;20433;-83
2023/08/13 09:41:20;;;;;;;7.63;4.43;;;21.50;90.20;;;;;;5116353;28;19918;-82
2023/08/13 09:43:49;;;;;;;6.88;4.03;;;21.70;89.20;;;;;;5093476;28;20478;-82
2023/08/13 09:46:21;;;;;;;21.30;5.85;;;21.70;89.20;;;;;;5109654;28;20027;-82
2023/08/13 09:48:49;;;;;;;10.57;5.30;;;21.70;89.20;;;;;;5113909;28;20023;-81
2023/08/13 09:51:19;;;;;;;6.57;4.07;;;21.70;89.40;;;;;;5115789;28;20020;-81
2023/08/13 09:53:51;;;;;;;6.75;4.47;;;21.70;88.60;;;;;;5118038;28;20016;-82
2023/08/13 09:56:20;;;;;;;11.65;5.63;;;21.50;89.00;;;;;;5109931;28;20043;-83
2023/08/13 09:58:47;;;;;;;11.82;5.57;;;21.60;89.60;;;;;;5103031;28;20011;-83
2023/08/13 10:01:14;;;;;;;16.58;7.32;;;21.80;89.70;;;;;;5115336;28;20040;-81
2023/08/13 10:03:40;;;;;;;18.67;5.75;;;22.00;89.60;;;;;;5101468;28;20023;-84
2023/08/13 10:06:06;;;;;;;11.00;5.20;;;22.20;89.00;;;;;;5103024;28;20031;-84
2023/08/13 10:08:33;;;;;;;7.53;4.95;;;22.30;88.90;;;;;;5113315;28;20311;-81
2023/08/13 10:10:59;;;;;;;6.15;5.10;;;22.20;87.30;;;;;;5093841;28;20027;-82
2023/08/13 10:13:26;;;;;;;8.93;4.95;;;22.10;88.10;;;;;;5117911;28;20091;-82
2023/08/13 10:15:52;;;;;;;10.30;5.60;;;22.00;88.40;;;;;;5099279;28;20076;-84
2023/08/13 10:18:18;;;;;;;5.50;4.87;;;22.00;88.30;;;;;;5116385;28;20029;-83
2023/08/13 10:20:45;;;;;;;8.80;5.45;;;21.90;88.20;;;;;;5117991;28;20480;-82
2023/08/13 10:23:11;;;;;;;8.85;5.50;;;21.70;88.40;;;;;;5117222;28;20107;-82
2023/08/13 10:25:39;;;;;;;8.00;5.90;;;21.60;89.10;;;;;;5098943;28;20035;-82
2023/08/13 10:28:20;;;;;;;;;;;21.50;89.50;;;;;;5118120;28;20098;-82
2023/08/13 10:30:46;;;;;;;10.50;7.78;;;21.50;89.50;;;;;;5090552;28;19904;-85
2023/08/13 10:33:15;;;;;;;10.40;5.07;;;21.60;90.30;;;;;;5109704;28;20062;-82
2023/08/13 10:35:42;;;;;;;9.55;5.35;;;21.60;89.80;;;;;;5129452;28;20019;-81
2023/08/13 10:38:08;;;;;;;7.32;5.18;;;21.50;90.20;;;;;;5114173;28;20031;-83
2023/08/13 10:40:35;;;;;;;5.38;4.25;;;21.30;90.60;;;;;;5110401;28;20519;-81
2023/08/13 10:43:03;;;;;;;8.63;4.75;;;20.80;91.70;;;;;;5110423;28;20024;-82
2023/08/13 10:45:35;;;;;;;6.15;5.53;;;20.00;93.50;;;;;;5112141;28;20034;-82
2023/08/13 10:48:08;;;;;;;9.63;6.00;;;19.60;95.10;;;;;;5096926;28;20030;-84
2023/08/13 10:50:40;;;;;;;7.88;6.10;;;19.40;96.10;;;;;;5111617;27;20032;-84
2023/08/13 10:53:11;;;;;;;8.15;6.03;;;19.40;96.60;;;;;;5099654;28;20034;-82
2023/08/13 10:55:43;;;;;;;8.23;6.82;;;19.40;96.70;;;;;;5094286;28;20087;-83
2023/08/13 10:58:26;;;;;;;7.53;5.55;;;19.40;97.00;;;;;;5118500;28;20028;-84
2023/08/13 11:00:57;;;;;;;6.82;6.22;;;19.50;96.40;;;;;;5119440;28;20035;-82
2023/08/13 11:03:25;;;;;;;6.93;6.13;;;19.60;96.40;;;;;;5120351;28;20092;-82
2023/08/13 11:05:52;;;;;;;6.00;5.00;;;19.60;96.30;;;;;;5101015;28;20027;-82
2023/08/13 11:08:19;;;;;;;8.80;6.37;;;19.70;96.40;;;;;;5099572;28;20039;-84
2023/08/13 11:10:49;;;;;;;7.95;5.50;;;19.70;96.30;;;;;;5099242;28;20252;-82
2023/08/13 11:13:17;;;;;;;6.63;5.90;;;19.90;96.30;;;;;;5116458;28;20094;-82
2023/08/13 11:15:54;;;;;;;10.40;6.57;;;19.90;96.20;;;;;;5117214;28;20023;-82
2023/08/13 11:18:20;;;;;;;8.52;6.40;;;20.00;96.10;;;;;;5117651;28;20015;-82
2023/08/13 11:20:47;;;;;;;11.00;5.87;;;19.90;96.30;;;;;;5100642;28;20036;-81
2023/08/13 11:23:18;;;;;;;7.13;5.82;;;19.80;96.60;;;;;;5115043;28;20320;-84
2023/08/13 11:25:48;;;;;;;7.75;5.80;;;19.70;97.00;;;;;;5099436;28;20035;-83
2023/08/13 11:28:25;;;;;;;12.15;7.18;;;19.90;97.20;;;;;;5099708;28;20023;-82
2023/08/13 11:30:52;;;;;;;6.72;5.95;;;20.00;97.30;;;;;;5117509;28;23836;-81
2023/08/13 11:33:19;;;;;;;9.57;5.75;;;20.10;96.90;;;;;;5098522;28;20047;-83
2023/08/13 11:35:46;;;;;;;18.67;9.23;;;20.20;96.90;;;;;;5120139;28;20414;-81
2023/08/13 11:38:12;;;;;;;8.18;5.85;;;20.30;96.70;;;;;;5108259;28;20028;-82
2023/08/13 11:40:38;;;;;;;17.17;6.75;;;20.50;96.50;;;;;;5117279;28;20040;-84
2023/08/13 11:43:08;;;;;;;24.77;6.45;;;20.80;96.40;;;;;;5107335;28;20076;-83
2023/08/13 11:45:34;;;;;;;31.67;7.78;;;21.10;95.50;;;;;;5098680;28;20469;-83
2023/08/13 11:48:20;;;;;;;17.38;5.93;;;21.30;95.00;;;;;;5115093;28;20099;-84
2023/08/13 11:50:55;;;;;;;17.00;5.20;;;21.50;94.30;;;;;;5109775;28;20028;-82
2023/08/13 11:53:21;;;;;;;9.05;4.75;;;21.60;94.00;;;;;;5089133;28;20027;-84
2023/08/13 11:55:49;;;;;;;9.82;5.03;;;22.00;93.10;;;;;;5097363;28;20506;-83
2023/08/13 11:58:18;;;;;;;16.17;6.18;;;22.10;92.90;;;;;;5104457;28;20118;-82
2023/08/13 12:00:48;;;;;;;20.55;6.97;;;22.30;92.70;;;;;;5111950;28;20441;-84
2023/08/13 12:03:14;;;;;;;22.13;6.93;;;22.30;92.20;;;;;;5087058;28;20118;-84
2023/08/13 12:05:42;;;;;;;18.33;5.80;;;22.40;92.50;;;;;;5103205;28;20032;-82
2023/08/13 12:08:09;;;;;;;17.58;6.20;;;22.30;91.90;;;;;;5111411;28;20020;-81
2023/08/13 12:10:36;;;;;;;24.83;6.55;;;22.20;92.00;;;;;;5116585;28;20035;-81
2023/08/13 12:13:02;;;;;;;;;;;22.00;92.30;;;;;;5087799;28;20446;-81
2023/08/13 12:15:30;;;;;;;13.10;5.95;;;21.90;92.50;;;;;;5085946;28;19904;-85
2023/08/13 12:17:59;;;;;;;20.80;6.38;;;21.70;92.80;;;;;;5087851;28;20389;-84
2023/08/13 12:20:27;;;;;;;12.88;5.43;;;21.70;93.00;;;;;;5112781;28;20023;-85
2023/08/13 12:22:54;;;;;;;9.60;4.72;;;21.50;93.20;;;;;;5099452;28;20556;-83
2023/08/13 12:25:20;;;;;;;7.63;5.80;;;21.50;93.30;;;;;;5101980;28;20414;-86
2023/08/13 12:27:53;;;;;;;10.18;5.10;;;21.50;93.50;;;;;;5114540;28;20077;-83
2023/08/13 12:30:19;;;;;;;8.45;5.63;;;21.60;93.80;;;;;;5095856;28;20035;-84
2023/08/13 12:32:45;;;;;;;12.75;6.05;;;21.90;93.60;;;;;;5126413;28;20012;-83
2023/08/13 12:35:12;;;;;;;11.32;6.20;;;22.30;93.00;;;;;;5103527;28;20016;-83